Time;durP1;ratioP1;P1;durP2;ratioP2;P2;SDS_P1;SDS_P2;PMS_P1;PMS_P2;Temp;Humidity;BMP_temperature;BMP_pressure;BME280_temperature;BME280_humidity;BME280_pressure;Samples;Min_cycle;Max_cycle;Signal;HPM_P1;HPM_P2
2022/01/21 00:01:52;;;;;;;20.50;19.10;;;;;;;;;;5013665;28;20249;-81
2022/01/21 00:04:19;;;;;;;20.23;18.70;;;;;;;;;;5013757;28;20224;-81
2022/01/21 00:06:47;;;;;;;20.90;19.35;;;;;;;;;;5013737;28;20248;-81
2022/01/21 00:09:14;;;;;;;23.00;20.55;;;;;;;;;;5014525;28;20202;-82
2022/01/21 00:11:41;;;;;;;21.70;19.95;;;;;;;;;;4996671;28;20194;-81
2022/01/21 00:14:10;;;;;;;21.27;19.75;;;;;;;;;;5013651;28;20308;-81
2022/01/21 00:16:39;;;;;;;21.73;20.23;;;;;;;;;;5013591;28;20194;-81
2022/01/21 00:19:10;;;;;;;20.67;19.20;;;;;;;;;;5013448;28;20193;-81
2022/01/21 00:30:24;;;;;;;21.55;19.48;;;;;;;;;;5013106;28;20193;-81
2022/01/21 00:32:52;;;;;;;21.50;19.60;;;;;;;;;;5013870;28;20868;-81
2022/01/21 00:35:20;;;;;;;21.73;20.00;;;;;;;;;;5013402;28;20186;-81
2022/01/21 00:37:48;;;;;;;22.25;19.88;;;;;;;;;;5013679;28;20283;-81
2022/01/21 00:40:18;;;;;;;22.23;20.55;;;;;;;;;;4995950;28;20202;-81
2022/01/21 00:43:10;;;;;;;22.25;20.00;;;;;;;;;;4995631;28;20212;-82
2022/01/21 00:45:39;;;;;;;22.33;20.42;;;;;;;;;;5013025;28;20241;-81
2022/01/21 00:48:06;;;;;;;23.00;20.23;;;;;;;;;;5013773;28;20197;-81
2022/01/21 00:50:34;;;;;;;22.85;20.35;;;;;;;;;;5013014;28;20194;-81
2022/01/21 00:53:01;;;;;;;21.88;19.98;;;;;;;;;;5012995;28;20193;-81
2022/01/21 00:55:29;;;;;;;20.95;19.40;;;;;;;;;;5012815;28;20198;-81
2022/01/21 00:57:56;;;;;;;21.77;19.75;;;;;;;;;;5012864;28;20198;-81
2022/01/21 01:00:23;;;;;;;22.10;19.83;;;;;;;;;;5013158;28;20194;-81
2022/01/21 01:02:52;;;;;;;21.38;19.55;;;;;;;;;;5013364;28;20189;-81
2022/01/21 01:05:20;;;;;;;21.38;19.50;;;;;;;;;;5012842;28;20224;-82
2022/01/21 01:07:47;;;;;;;24.80;20.15;;;;;;;;;;4995162;28;20236;-82
2022/01/21 01:10:22;;;;;;;21.00;19.05;;;;;;;;;;5015219;28;20193;-82
2022/01/21 01:12:58;;;;;;;21.58;19.95;;;;;;;;;;5016995;28;20654;-81
2022/01/21 01:21:02;;;;;;;22.48;20.85;;;;;;;;;;4956404;29;20194;-81
2022/01/21 01:23:39;;;;;;;20.60;18.98;;;;;;;;;;4956355;29;20201;-81
2022/01/21 01:28:51;;;;;;;21.48;19.67;;;;;;;;;;4955932;29;20309;-81
2022/01/21 01:31:18;;;;;;;21.27;19.35;;;;;;;;;;4956043;29;20270;-81
2022/01/21 01:33:47;;;;;;;21.63;19.60;;;;;;;;;;4956136;29;20275;-81
2022/01/21 01:36:15;;;;;;;20.75;18.75;;;;;;;;;;4955847;29;20203;-81
2022/01/21 01:41:31;;;;;;;21.25;19.63;;;;;;;;;;4955468;29;20218;-81
2022/01/21 01:49:30;;;;;;;21.85;19.70;;;;;;;;;;4927712;29;20695;-81
2022/01/21 01:51:58;;;;;;;20.92;19.23;;;;;;;;;;4955437;29;20224;-79
2022/01/21 01:54:26;;;;;;;21.40;19.48;;;;;;;;;;4960405;28;20214;-81
2022/01/21 01:56:54;;;;;;;21.30;19.35;;;;;;;;;;5017258;28;20213;-81
2022/01/21 01:59:21;;;;;;;20.00;18.38;;;;;;;;;;5015865;28;20199;-81
2022/01/21 02:01:52;;;;;;;21.00;18.85;;;;;;;;;;5015918;28;20193;-81
2022/01/21 02:04:20;;;;;;;20.55;19.00;;;;;;;;;;5016303;28;20205;-81
2022/01/21 02:06:49;;;;;;;20.05;18.80;;;;;;;;;;5015495;28;20332;-81
2022/01/21 02:09:16;;;;;;;20.23;19.00;;;;;;;;;;5015912;28;20234;-81
2022/01/21 02:11:44;;;;;;;20.33;18.98;;;;;;;;;;5016626;28;20197;-81
2022/01/21 02:14:15;;;;;;;21.13;19.55;;;;;;;;;;5016322;28;20193;-82
2022/01/21 02:17:08;;;;;;;20.65;18.95;;;;;;;;;;5017053;28;20202;-81
2022/01/21 02:22:21;;;;;;;20.35;18.92;;;;;;;;;;5014335;28;20192;-80
2022/01/21 02:24:52;;;;;;;19.70;18.40;;;;;;;;;;5015677;28;20200;-81
2022/01/21 02:27:19;;;;;;;21.65;20.15;;;;;;;;;;5015445;28;20190;-81
2022/01/21 02:29:49;;;;;;;20.77;19.50;;;;;;;;;;5016075;28;20276;-81
2022/01/21 02:32:16;;;;;;;21.20;19.45;;;;;;;;;;5015587;28;20189;-81
2022/01/21 02:34:44;;;;;;;20.42;18.98;;;;;;;;;;5015259;28;20573;-81
2022/01/21 02:37:12;;;;;;;19.58;18.35;;;;;;;;;;5015186;28;20197;-80
2022/01/21 02:39:41;;;;;;;22.00;20.13;;;;;;;;;;5015187;28;20198;-81
2022/01/21 02:42:09;;;;;;;21.75;19.63;;;;;;;;;;5015435;28;20190;-81
2022/01/21 02:44:38;;;;;;;19.63;18.33;;;;;;;;;;5015101;28;20260;-81
2022/01/21 02:47:06;;;;;;;20.25;18.63;;;;;;;;;;5014955;28;20600;-81
2022/01/21 02:49:34;;;;;;;20.35;19.08;;;;;;;;;;5014945;28;20656;-80
2022/01/21 02:52:02;;;;;;;21.55;19.42;;;;;;;;;;5015235;28;20197;-81
2022/01/21 02:54:30;;;;;;;20.60;19.20;;;;;;;;;;5015159;28;20197;-81
2022/01/21 02:56:59;;;;;;;20.10;18.63;;;;;;;;;;5014712;28;20281;-81
2022/01/21 02:59:27;;;;;;;21.23;19.80;;;;;;;;;;5014788;28;20232;-81
2022/01/21 03:01:54;;;;;;;20.48;18.80;;;;;;;;;;5014672;28;20200;-81
2022/01/21 03:04:30;;;;;;;20.80;19.20;;;;;;;;;;5014765;28;20660;-82
2022/01/21 03:06:57;;;;;;;21.05;18.75;;;;;;;;;;5015575;28;20298;-81
2022/01/21 03:09:24;;;;;;;21.48;19.80;;;;;;;;;;5014819;28;20195;-82
2022/01/21 03:11:52;;;;;;;21.40;19.45;;;;;;;;;;5015636;28;20207;-81
2022/01/21 03:14:20;;;;;;;21.35;19.70;;;;;;;;;;5014430;28;20194;-81
2022/01/21 03:16:48;;;;;;;20.55;19.17;;;;;;;;;;5014408;28;20201;-80
2022/01/21 03:19:15;;;;;;;19.30;17.80;;;;;;;;;;5014522;28;20637;-81
2022/01/21 03:21:43;;;;;;;21.77;20.10;;;;;;;;;;5014296;28;20195;-82
2022/01/21 03:24:10;;;;;;;21.10;19.65;;;;;;;;;;5014681;28;20828;-81
2022/01/21 03:26:38;;;;;;;21.75;20.15;;;;;;;;;;5016207;28;20222;-81
2022/01/21 03:29:06;;;;;;;19.80;18.50;;;;;;;;;;5015405;28;20655;-81
2022/01/21 03:31:35;;;;;;;21.35;19.73;;;;;;;;;;5014339;28;20197;-81
2022/01/21 03:34:03;;;;;;;21.73;19.75;;;;;;;;;;4997086;28;20191;-79
2022/01/21 03:36:31;;;;;;;22.17;20.15;;;;;;;;;;4998257;28;20219;-80
2022/01/21 03:38:58;;;;;;;22.65;20.45;;;;;;;;;;4996159;28;20206;-81
2022/01/21 03:41:26;;;;;;;20.08;18.67;;;;;;;;;;5014150;28;20632;-81
2022/01/21 03:43:53;;;;;;;20.70;19.20;;;;;;;;;;5014254;28;20194;-81
2022/01/21 03:46:20;;;;;;;21.50;19.42;;;;;;;;;;5013734;28;20257;-81
2022/01/21 03:48:50;;;;;;;20.00;18.80;;;;;;;;;;5014215;28;20611;-82
2022/01/21 03:51:18;;;;;;;21.80;19.67;;;;;;;;;;5014099;28;20297;-81
2022/01/21 03:53:46;;;;;;;21.70;20.13;;;;;;;;;;5013586;28;20751;-81
2022/01/21 03:56:13;;;;;;;22.05;19.80;;;;;;;;;;5014150;28;20186;-81
2022/01/21 03:58:40;;;;;;;20.10;18.20;;;;;;;;;;5015149;28;20200;-81
2022/01/21 04:01:08;;;;;;;20.40;19.05;;;;;;;;;;5013733;28;20259;-81
2022/01/21 04:03:35;;;;;;;20.75;18.88;;;;;;;;;;5013579;28;20190;-81
2022/01/21 04:06:04;;;;;;;21.10;19.48;;;;;;;;;;5013405;28;20236;-80
2022/01/21 04:08:32;;;;;;;21.42;19.83;;;;;;;;;;5013500;28;20549;-81
2022/01/21 04:10:59;;;;;;;20.52;19.05;;;;;;;;;;5013588;28;20191;-81
2022/01/21 04:13:27;;;;;;;21.10;19.17;;;;;;;;;;5014655;28;20186;-81
2022/01/21 04:15:55;;;;;;;19.70;18.40;;;;;;;;;;5013525;28;20202;-81
2022/01/21 04:18:23;;;;;;;20.88;18.95;;;;;;;;;;5013579;28;20216;-80
2022/01/21 04:20:52;;;;;;;20.42;19.00;;;;;;;;;;5013341;28;20191;-80
2022/01/21 04:23:21;;;;;;;20.58;18.70;;;;;;;;;;5013212;28;20198;-80
2022/01/21 04:25:49;;;;;;;21.08;18.85;;;;;;;;;;5013032;28;20586;-81
2022/01/21 04:28:16;;;;;;;21.50;19.60;;;;;;;;;;5013289;28;20597;-81
2022/01/21 04:30:44;;;;;;;22.33;19.90;;;;;;;;;;5014029;28;20198;-81
2022/01/21 04:33:12;;;;;;;21.60;19.88;;;;;;;;;;5013447;28;20195;-81
2022/01/21 04:35:39;;;;;;;20.92;19.40;;;;;;;;;;5013154;28;20208;-81
2022/01/21 04:38:09;;;;;;;21.75;19.77;;;;;;;;;;5012901;28;20599;-81
2022/01/21 04:40:45;;;;;;;22.70;20.65;;;;;;;;;;5013314;28;20202;-81
2022/01/21 04:48:38;;;;;;;21.20;19.67;;;;;;;;;;4980287;28;20232;-81
2022/01/21 04:51:14;;;;;;;19.95;18.45;;;;;;;;;;5013521;28;20611;-81
2022/01/21 04:53:42;;;;;;;20.95;19.25;;;;;;;;;;5014358;28;20288;-81
2022/01/21 04:56:11;;;;;;;20.10;18.35;;;;;;;;;;5012930;28;20190;-81
2022/01/21 04:58:39;;;;;;;22.02;20.17;;;;;;;;;;5012902;28;20197;-81
2022/01/21 05:01:07;;;;;;;20.83;19.13;;;;;;;;;;5013148;28;20201;-81
2022/01/21 05:03:36;;;;;;;20.40;18.88;;;;;;;;;;5012977;28;20197;-81
2022/01/21 05:06:03;;;;;;;20.80;19.10;;;;;;;;;;4996526;28;20218;-81
2022/01/21 05:08:32;;;;;;;23.02;19.70;;;;;;;;;;5013569;28;20192;-81
2022/01/21 05:11:01;;;;;;;24.05;20.67;;;;;;;;;;5013077;28;20210;-81
2022/01/21 05:13:37;;;;;;;20.38;18.52;;;;;;;;;;5012810;28;20194;-81
2022/01/21 05:16:08;;;;;;;21.90;19.60;;;;;;;;;;5012830;28;20232;-81
2022/01/21 05:18:36;;;;;;;20.38;18.98;;;;;;;;;;5013000;28;20190;-81
2022/01/21 05:21:03;;;;;;;21.75;19.67;;;;;;;;;;5013086;28;20194;-81
2022/01/21 05:23:30;;;;;;;26.20;20.92;;;;;;;;;;5012756;28;20194;-81
2022/01/21 05:25:58;;;;;;;20.35;18.75;;;;;;;;;;5012762;28;20221;-81
2022/01/21 05:28:25;;;;;;;21.65;20.08;;;;;;;;;;5012478;28;20640;-80
2022/01/21 05:30:54;;;;;;;21.08;19.40;;;;;;;;;;5012808;28;20221;-81
2022/01/21 05:33:21;;;;;;;21.42;19.27;;;;;;;;;;5012627;28;20213;-81
2022/01/21 05:35:49;;;;;;;23.48;21.67;;;;;;;;;;5012361;28;20245;-81
2022/01/21 05:38:16;;;;;;;21.95;19.75;;;;;;;;;;5012504;28;20229;-81
2022/01/21 05:40:46;;;;;;;21.75;19.73;;;;;;;;;;5012666;28;20260;-80
2022/01/21 05:43:13;;;;;;;22.58;20.10;;;;;;;;;;5012422;28;20229;-81
2022/01/21 05:48:27;;;;;;;22.15;20.15;;;;;;;;;;5012916;28;20257;-82
2022/01/21 05:50:54;;;;;;;22.50;20.65;;;;;;;;;;5013507;28;20194;-81
2022/01/21 05:53:22;;;;;;;21.77;20.00;;;;;;;;;;5012603;28;20243;-81
2022/01/21 05:55:50;;;;;;;23.15;20.75;;;;;;;;;;5013776;28;20189;-81
2022/01/21 05:58:17;;;;;;;21.90;20.20;;;;;;;;;;5016435;28;20193;-80
2022/01/21 06:00:45;;;;;;;24.02;21.50;;;;;;;;;;5015943;28;20194;-81
2022/01/21 06:03:13;;;;;;;22.63;20.48;;;;;;;;;;5015831;28;20217;-80
2022/01/21 06:05:42;;;;;;;23.60;21.75;;;;;;;;;;5015658;28;20186;-81
2022/01/21 06:08:09;;;;;;;21.23;19.27;;;;;;;;;;5016088;28;20186;-81
2022/01/21 06:10:36;;;;;;;23.73;21.38;;;;;;;;;;5015999;28;20190;-81
2022/01/21 06:13:04;;;;;;;22.90;20.60;;;;;;;;;;4998016;28;20201;-81
2022/01/21 06:15:31;;;;;;;23.40;21.45;;;;;;;;;;5015402;28;20702;-81
2022/01/21 06:17:59;;;;;;;23.08;20.92;;;;;;;;;;5015570;28;20294;-81
2022/01/21 06:20:26;;;;;;;22.92;20.83;;;;;;;;;;5015536;28;20593;-81
2022/01/21 06:22:55;;;;;;;24.08;20.77;;;;;;;;;;4997936;28;20197;-81
2022/01/21 06:25:22;;;;;;;23.75;21.40;;;;;;;;;;5015552;28;20218;-81
2022/01/21 06:27:50;;;;;;;27.50;25.10;;;;;;;;;;4998319;28;20222;-82
2022/01/21 06:30:17;;;;;;;23.67;21.58;;;;;;;;;;5015568;28;20193;-81
2022/01/21 06:32:45;;;;;;;22.38;19.95;;;;;;;;;;5015357;28;20225;-81
2022/01/21 06:35:12;;;;;;;22.83;20.52;;;;;;;;;;5015445;28;20202;-81
2022/01/21 06:37:40;;;;;;;22.92;20.98;;;;;;;;;;5015486;28;20198;-81
2022/01/21 06:40:10;;;;;;;22.40;20.23;;;;;;;;;;5015000;28;20606;-81
2022/01/21 06:42:38;;;;;;;22.88;20.27;;;;;;;;;;5015147;28;20194;-81
2022/01/21 06:45:06;;;;;;;22.40;20.42;;;;;;;;;;5014834;28;20235;-81
2022/01/21 06:47:33;;;;;;;23.02;20.85;;;;;;;;;;5014459;28;20237;-80
2022/01/21 06:50:00;;;;;;;22.75;20.65;;;;;;;;;;5015340;28;20191;-81
2022/01/21 06:52:28;;;;;;;22.13;20.17;;;;;;;;;;5015301;28;20201;-81
2022/01/21 06:54:56;;;;;;;23.52;21.67;;;;;;;;;;5015274;28;20204;-81
2022/01/21 06:57:24;;;;;;;21.20;19.55;;;;;;;;;;5015197;28;20189;-81
2022/01/21 06:59:52;;;;;;;21.70;20.10;;;;;;;;;;5014876;28;20192;-81
2022/01/21 07:02:19;;;;;;;23.45;21.50;;;;;;;;;;5014827;28;20640;-81
2022/01/21 07:04:47;;;;;;;22.65;20.83;;;;;;;;;;5015005;28;20208;-81
2022/01/21 07:07:14;;;;;;;24.27;22.13;;;;;;;;;;5014015;28;20305;-81
2022/01/21 07:09:42;;;;;;;22.65;20.67;;;;;;;;;;5014693;28;20527;-81
2022/01/21 07:12:10;;;;;;;21.50;20.20;;;;;;;;;;5014690;28;20630;-81
2022/01/21 07:14:39;;;;;;;23.15;21.25;;;;;;;;;;5014690;28;20556;-81
2022/01/21 07:17:06;;;;;;;23.05;21.10;;;;;;;;;;5014645;28;20209;-81
2022/01/21 07:19:34;;;;;;;21.73;20.27;;;;;;;;;;5014747;28;20187;-81
2022/01/21 07:22:01;;;;;;;26.45;21.20;;;;;;;;;;5014513;28;20194;-81
2022/01/21 07:24:28;;;;;;;22.67;20.77;;;;;;;;;;5014474;28;20239;-81
2022/01/21 07:26:56;;;;;;;23.83;21.50;;;;;;;;;;4997362;28;20229;-80
2022/01/21 07:29:23;;;;;;;22.45;20.50;;;;;;;;;;5015927;28;20191;-80
2022/01/21 07:31:54;;;;;;;21.75;20.10;;;;;;;;;;4998372;28;20226;-80
2022/01/21 07:34:21;;;;;;;22.67;20.83;;;;;;;;;;5020363;28;20237;-80
2022/01/21 07:36:49;;;;;;;23.10;21.05;;;;;;;;;;5018888;28;20193;-81
2022/01/21 07:39:16;;;;;;;22.60;20.75;;;;;;;;;;5015509;28;20610;-80
2022/01/21 07:41:44;;;;;;;19.23;18.17;;;;;;;;;;5014812;28;20637;-80
2022/01/21 07:44:12;;;;;;;22.90;20.80;;;;;;;;;;5014699;28;20678;-80
2022/01/21 07:46:39;;;;;;;20.48;18.70;;;;;;;;;;5014762;28;20228;-80
2022/01/21 07:49:08;;;;;;;23.65;21.27;;;;;;;;;;5015028;28;20264;-81
2022/01/21 07:51:36;;;;;;;22.52;20.83;;;;;;;;;;4996721;28;20591;-81
2022/01/21 07:54:04;;;;;;;22.25;20.17;;;;;;;;;;4996966;28;20257;-81
2022/01/21 07:56:32;;;;;;;20.30;19.08;;;;;;;;;;5013925;28;20244;-80
2022/01/21 07:59:00;;;;;;;22.08;20.23;;;;;;;;;;5013991;28;20193;-81
2022/01/21 08:01:27;;;;;;;22.17;20.45;;;;;;;;;;5014539;28;20195;-81
2022/01/21 08:03:55;;;;;;;25.50;21.77;;;;;;;;;;5014556;28;20633;-81
2022/01/21 08:06:24;;;;;;;22.85;20.95;;;;;;;;;;5013916;28;20247;-80
2022/01/21 08:08:53;;;;;;;23.98;21.77;;;;;;;;;;5014088;28;20195;-80
2022/01/21 08:11:20;;;;;;;21.38;19.88;;;;;;;;;;5013986;28;20193;-80
2022/01/21 08:13:48;;;;;;;22.65;20.95;;;;;;;;;;5013951;28;20245;-81
2022/01/21 08:16:15;;;;;;;21.77;20.17;;;;;;;;;;5013768;28;20284;-81
2022/01/21 08:18:42;;;;;;;28.17;20.25;;;;;;;;;;5015082;28;20197;-86
2022/01/21 08:21:10;;;;;;;20.90;19.55;;;;;;;;;;5014305;28;20202;-80
2022/01/21 08:23:39;;;;;;;21.98;20.02;;;;;;;;;;5014087;28;20231;-80
2022/01/21 08:26:06;;;;;;;21.70;20.10;;;;;;;;;;5014034;28;20602;-80
2022/01/21 08:28:34;;;;;;;20.73;19.05;;;;;;;;;;5012981;28;20233;-81
2022/01/21 08:31:01;;;;;;;21.60;20.08;;;;;;;;;;5013357;28;20289;-80
2022/01/21 08:33:28;;;;;;;22.73;20.63;;;;;;;;;;5014124;28;20209;-80
2022/01/21 08:35:56;;;;;;;19.40;18.40;;;;;;;;;;5014176;28;20234;-80
2022/01/21 08:38:23;;;;;;;22.35;20.45;;;;;;;;;;5014425;28;20206;-80
2022/01/21 08:40:52;;;;;;;23.02;20.55;;;;;;;;;;5013467;28;20652;-81
2022/01/21 08:43:19;;;;;;;22.65;20.85;;;;;;;;;;4995974;28;20189;-81
2022/01/21 08:45:47;;;;;;;21.92;20.10;;;;;;;;;;5013038;28;20233;-80
2022/01/21 08:48:14;;;;;;;33.47;21.25;;;;;;;;;;5013544;28;20222;-80
2022/01/21 08:50:41;;;;;;;22.88;21.27;;;;;;;;;;5013566;28;20217;-80
2022/01/21 08:53:35;;;;;;;22.15;20.23;;;;;;;;;;5014599;28;20205;-79
2022/01/21 08:55:59;;;;;;;22.42;20.40;;;;;;;;;;5013467;28;20201;-81
2022/01/21 08:58:26;;;;;;;21.85;20.25;;;;;;;;;;5013521;28;20281;-80
2022/01/21 09:00:54;;;;;;;23.42;21.52;;;;;;;;;;5015369;28;20189;-80
2022/01/21 09:03:21;;;;;;;21.08;19.60;;;;;;;;;;5019327;28;20640;-80
2022/01/21 09:05:50;;;;;;;22.13;20.25;;;;;;;;;;5016850;28;20196;-79
2022/01/21 09:08:18;;;;;;;24.67;22.27;;;;;;;;;;5017205;28;20221;-81
2022/01/21 09:10:45;;;;;;;23.25;21.27;;;;;;;;;;5016929;28;20225;-81
2022/01/21 09:13:14;;;;;;;23.80;21.90;;;;;;;;;;5017184;28;20196;-80
2022/01/21 09:15:41;;;;;;;64.53;41.35;;;;;;;;;;5017658;28;20201;-81
2022/01/21 09:18:10;;;;;;;27.40;24.38;;;;;;;;;;5001495;28;20568;-81
2022/01/21 09:20:38;;;;;;;29.13;25.80;;;;;;;;;;5019028;28;20644;-81
2022/01/21 09:23:06;;;;;;;26.33;23.85;;;;;;;;;;5018626;28;20195;-80
2022/01/21 09:25:33;;;;;;;28.10;23.75;;;;;;;;;;5002184;28;20195;-80
2022/01/21 09:28:01;;;;;;;22.15;20.33;;;;;;;;;;5017899;28;20214;-81
2022/01/21 09:30:30;;;;;;;21.80;19.95;;;;;;;;;;5020216;28;20226;-80
2022/01/21 09:32:57;;;;;;;26.80;22.35;;;;;;;;;;5028195;28;20213;-84
2022/01/21 09:35:25;;;;;;;21.55;19.85;;;;;;;;;;5030063;28;20198;-80
2022/01/21 09:37:52;;;;;;;21.45;19.85;;;;;;;;;;5018793;28;20233;-80
2022/01/21 09:40:20;;;;;;;22.48;20.85;;;;;;;;;;5022380;28;20226;-80
2022/01/21 09:42:47;;;;;;;23.15;21.27;;;;;;;;;;5029989;28;20195;-80
2022/01/21 09:45:18;;;;;;;22.63;21.25;;;;;;;;;;5024329;28;20226;-82
2022/01/21 09:47:49;;;;;;;29.60;20.75;;;;;;;;;;5024215;28;20295;-80
2022/01/21 09:50:19;;;;;;;22.58;21.08;;;;;;;;;;5022017;28;20707;-84
2022/01/21 09:52:47;;;;;;;24.98;22.92;;;;;;;;;;5023913;28;20202;-86
2022/01/21 09:55:17;;;;;;;23.35;21.50;;;;;;;;;;5023890;28;20198;-84
2022/01/21 09:57:47;;;;;;;23.45;21.17;;;;;;;;;;5022060;28;20204;-78
2022/01/21 10:00:15;;;;;;;24.90;22.73;;;;;;;;;;5018817;28;20258;-77
2022/01/21 10:02:45;;;;;;;21.83;20.15;;;;;;;;;;5017171;28;20210;-77
2022/01/21 10:05:14;;;;;;;21.05;19.30;;;;;;;;;;5017705;28;20199;-78
2022/01/21 10:07:42;;;;;;;21.25;19.70;;;;;;;;;;5020154;28;20294;-78
2022/01/21 10:10:10;;;;;;;23.38;21.48;;;;;;;;;;5020112;28;20206;-78
2022/01/21 10:12:39;;;;;;;22.50;21.05;;;;;;;;;;5020584;28;20603;-78
2022/01/21 10:15:07;;;;;;;26.55;24.50;;;;;;;;;;5020916;28;20195;-78
2022/01/21 10:17:34;;;;;;;21.83;20.25;;;;;;;;;;5016226;28;20196;-78
2022/01/21 10:20:14;;;;;;;26.73;24.40;;;;;;;;;;5015760;28;20710;-78
2022/01/21 10:22:56;;;;;;;22.40;20.85;;;;;;;;;;5016300;28;20667;-78
2022/01/21 10:25:24;;;;;;;21.42;19.85;;;;;;;;;;5016198;28;20219;-77
2022/01/21 10:27:51;;;;;;;22.05;19.98;;;;;;;;;;5018763;28;20269;-77
2022/01/21 10:30:23;;;;;;;21.13;19.70;;;;;;;;;;5025532;28;20557;-77
2022/01/21 10:32:50;;;;;;;21.27;19.48;;;;;;;;;;5022059;28;20186;-78
2022/01/21 10:35:23;;;;;;;24.08;21.95;;;;;;;;;;5019696;28;20197;-81
2022/01/21 10:37:50;;;;;;;20.55;19.33;;;;;;;;;;5019670;28;20203;-79
2022/01/21 10:40:21;;;;;;;23.00;21.10;;;;;;;;;;5018191;28;20195;-77
2022/01/21 10:42:48;;;;;;;21.80;19.90;;;;;;;;;;5017840;28;20195;-77
2022/01/21 10:45:16;;;;;;;20.63;19.10;;;;;;;;;;5018486;28;20238;-77
2022/01/21 10:47:49;;;;;;;21.67;19.95;;;;;;;;;;5017919;28;20238;-77
2022/01/21 10:50:17;;;;;;;22.02;20.13;;;;;;;;;;5018382;28;20195;-78
2022/01/21 10:52:50;;;;;;;22.02;19.83;;;;;;;;;;5018817;28;20269;-77
2022/01/21 10:55:29;;;;;;;21.23;19.35;;;;;;;;;;5016029;28;20201;-77
2022/01/21 10:58:06;;;;;;;22.25;20.52;;;;;;;;;;5015245;28;20195;-78
2022/01/21 11:00:33;;;;;;;22.08;20.38;;;;;;;;;;5015113;28;20202;-77
2022/01/21 11:03:09;;;;;;;21.63;20.00;;;;;;;;;;5015124;28;20198;-77
2022/01/21 11:05:41;;;;;;;22.50;20.65;;;;;;;;;;5015134;28;20199;-77
2022/01/21 11:08:11;;;;;;;21.10;19.80;;;;;;;;;;5014902;28;20746;-77
2022/01/21 11:10:49;;;;;;;20.27;19.08;;;;;;;;;;5015596;28;20238;-77
2022/01/21 11:13:37;;;;;;;21.77;19.95;;;;;;;;;;5015951;28;20204;-77
2022/01/21 11:16:13;;;;;;;23.70;21.67;;;;;;;;;;5014702;28;20231;-77
2022/01/21 11:18:51;;;;;;;21.50;19.90;;;;;;;;;;5015609;28;20277;-77
2022/01/21 11:21:18;;;;;;;21.05;19.73;;;;;;;;;;5014433;28;20202;-77
2022/01/21 11:23:48;;;;;;;21.75;20.23;;;;;;;;;;5014329;28;20594;-80
2022/01/21 11:26:18;;;;;;;23.60;22.05;;;;;;;;;;5014625;28;20294;-78
2022/01/21 11:28:48;;;;;;;20.67;19.42;;;;;;;;;;5014120;28;20579;-77
2022/01/21 11:31:16;;;;;;;22.00;20.65;;;;;;;;;;5015945;28;20595;-81
2022/01/21 11:33:43;;;;;;;21.45;19.83;;;;;;;;;;5013360;28;20202;-82
2022/01/21 11:36:11;;;;;;;21.38;19.58;;;;;;;;;;5015553;28;20199;-81
2022/01/21 11:38:39;;;;;;;19.85;18.60;;;;;;;;;;5012616;28;20276;-83
2022/01/21 11:41:09;;;;;;;23.35;21.00;;;;;;;;;;5015887;28;20282;-82
2022/01/21 11:43:37;;;;;;;20.27;19.17;;;;;;;;;;5014470;28;20257;-80
2022/01/21 11:48:53;;;;;;;23.30;21.13;;;;;;;;;;4962561;28;20228;-82
2022/01/21 11:51:22;;;;;;;21.40;20.17;;;;;;;;;;4976855;28;20192;-84
2022/01/21 11:53:50;;;;;;;21.30;19.60;;;;;;;;;;4977416;28;20248;-83
2022/01/21 11:56:48;;;;;;;21.17;19.42;;;;;;;;;;4977445;28;20200;-83
2022/01/21 11:59:25;;;;;;;20.92;19.38;;;;;;;;;;4898298;29;20215;-84
2022/01/21 12:01:53;;;;;;;22.38;20.27;;;;;;;;;;4897573;29;20298;-78
2022/01/21 12:04:47;;;;;;;21.83;20.33;;;;;;;;;;4897184;29;20281;-78
2022/01/21 12:07:33;;;;;;;20.42;19.02;;;;;;;;;;4841577;29;20267;-81
2022/01/21 12:10:00;;;;;;;21.45;19.75;;;;;;;;;;4841693;29;20235;-82
2022/01/21 12:12:54;;;;;;;20.52;18.92;;;;;;;;;;4843001;29;20209;-77
2022/01/21 12:15:26;;;;;;;21.95;20.33;;;;;;;;;;4840350;29;20247;-78
2022/01/21 12:18:07;;;;;;;21.15;19.65;;;;;;;;;;4841376;29;20217;-79
2022/01/21 12:20:36;;;;;;;21.17;19.55;;;;;;;;;;4845001;29;20213;-82
2022/01/21 12:23:12;;;;;;;22.50;20.27;;;;;;;;;;4843628;29;20352;-78
2022/01/21 12:26:06;;;;;;;20.83;19.45;;;;;;;;;;4841115;29;20257;-78
2022/01/21 12:28:33;;;;;;;21.98;20.40;;;;;;;;;;4841715;29;20309;-78
2022/01/21 12:31:02;;;;;;;20.73;19.23;;;;;;;;;;4841740;29;20248;-78
2022/01/21 12:33:48;;;;;;;21.67;19.92;;;;;;;;;;4892840;29;20205;-77
2022/01/21 12:36:16;;;;;;;21.75;19.92;;;;;;;;;;4935809;28;20207;-77
2022/01/21 12:41:32;;;;;;;19.98;18.77;;;;;;;;;;4935991;29;20253;-77
2022/01/21 12:44:00;;;;;;;20.95;19.30;;;;;;;;;;4977704;28;20236;-78
2022/01/21 12:46:34;;;;;;;21.80;20.00;;;;;;;;;;5014623;28;20283;-77
2022/01/21 12:49:02;;;;;;;22.50;20.60;;;;;;;;;;5014254;28;20310;-78
2022/01/21 12:51:55;;;;;;;20.42;19.23;;;;;;;;;;5014381;28;20195;-78
2022/01/21 12:57:09;;;;;;;21.30;19.25;;;;;;;;;;5014430;28;20194;-78
2022/01/21 12:59:37;;;;;;;22.10;20.38;;;;;;;;;;5014506;28;20192;-78
2022/01/21 13:02:06;;;;;;;21.30;20.00;;;;;;;;;;5014177;28;20195;-78
2022/01/21 13:04:43;;;;;;;22.40;20.73;;;;;;;;;;5015509;28;20199;-78
2022/01/21 13:07:12;;;;;;;22.10;20.25;;;;;;;;;;5017902;28;20194;-78
2022/01/21 13:10:01;;;;;;;20.98;19.25;;;;;;;;;;5017245;28;20269;-78
2022/01/21 13:12:46;;;;;;;21.67;20.08;;;;;;;;;;5016972;28;20223;-78
2022/01/21 13:15:13;;;;;;;22.63;20.73;;;;;;;;;;5016482;28;20202;-78
2022/01/21 13:17:42;;;;;;;21.02;19.52;;;;;;;;;;5016549;28;20187;-78
2022/01/21 13:20:10;;;;;;;21.13;19.63;;;;;;;;;;5016972;28;20281;-78
2022/01/21 13:22:37;;;;;;;22.15;20.35;;;;;;;;;;5022734;28;20198;-77
2022/01/21 13:25:09;;;;;;;21.40;19.83;;;;;;;;;;5028694;28;20266;-77
2022/01/21 13:27:37;;;;;;;22.30;20.67;;;;;;;;;;5019279;28;20198;-78
2022/01/21 13:30:06;;;;;;;22.75;20.75;;;;;;;;;;5030020;28;20226;-80
2022/01/21 13:32:33;;;;;;;23.70;21.73;;;;;;;;;;5025768;28;20203;-81
2022/01/21 13:35:10;;;;;;;25.33;19.30;;;;;;;;;;5029389;28;20198;-81
2022/01/21 13:37:38;;;;;;;22.27;20.58;;;;;;;;;;5030903;28;20207;-81
2022/01/21 13:40:08;;;;;;;22.65;20.15;;;;;;;;;;5029356;28;20198;-79
2022/01/21 13:42:35;;;;;;;21.95;19.80;;;;;;;;;;5023914;28;20202;-79
2022/01/21 13:45:08;;;;;;;22.13;19.85;;;;;;;;;;5020673;28;20274;-78
2022/01/21 13:47:37;;;;;;;22.08;19.95;;;;;;;;;;5019764;28;20243;-80
2022/01/21 13:50:11;;;;;;;20.52;18.92;;;;;;;;;;5018951;28;20262;-80
2022/01/21 13:52:40;;;;;;;21.33;19.55;;;;;;;;;;5019765;28;20198;-82
2022/01/21 13:55:08;;;;;;;19.73;18.27;;;;;;;;;;5020456;28;20195;-79
2022/01/21 13:57:35;;;;;;;21.35;19.50;;;;;;;;;;5019828;28;20192;-80
2022/01/21 14:00:03;;;;;;;21.55;19.85;;;;;;;;;;5017119;28;20190;-80
2022/01/21 14:02:30;;;;;;;21.35;19.17;;;;;;;;;;5017688;28;20226;-80
2022/01/21 14:04:58;;;;;;;19.85;18.45;;;;;;;;;;5017514;28;20203;-81
2022/01/21 14:07:28;;;;;;;20.63;18.88;;;;;;;;;;5017716;28;20279;-80
2022/01/21 14:09:56;;;;;;;19.13;17.90;;;;;;;;;;5016144;28;20216;-80
2022/01/21 14:12:23;;;;;;;21.88;19.65;;;;;;;;;;4999041;28;20551;-80
2022/01/21 14:14:52;;;;;;;21.45;19.75;;;;;;;;;;5020149;28;20683;-80
2022/01/21 14:17:24;;;;;;;20.88;18.80;;;;;;;;;;5020825;28;20187;-80
2022/01/21 14:19:52;;;;;;;20.63;18.95;;;;;;;;;;5020024;28;20226;-80
2022/01/21 14:22:20;;;;;;;18.98;17.80;;;;;;;;;;5017312;28;20208;-80
2022/01/21 14:24:50;;;;;;;22.67;20.17;;;;;;;;;;5016918;28;20219;-86
2022/01/21 14:27:21;;;;;;;22.30;20.10;;;;;;;;;;5018234;28;20281;-85
2022/01/21 14:29:55;;;;;;;19.48;17.98;;;;;;;;;;5016806;28;20234;-84
2022/01/21 14:32:26;;;;;;;20.83;19.23;;;;;;;;;;5016223;28;20195;-78
2022/01/21 14:35:06;;;;;;;20.05;18.52;;;;;;;;;;5016650;28;20203;-80
2022/01/21 14:37:37;;;;;;;18.75;17.55;;;;;;;;;;5021719;28;20247;-85
2022/01/21 14:40:07;;;;;;;21.60;19.85;;;;;;;;;;5016111;28;20701;-85
2022/01/21 14:42:35;;;;;;;21.23;19.52;;;;;;;;;;5019073;28;20195;-79
2022/01/21 14:45:11;;;;;;;20.98;19.13;;;;;;;;;;5015480;28;20239;-85
2022/01/21 14:47:38;;;;;;;21.55;19.38;;;;;;;;;;5015737;28;20282;-85
2022/01/21 14:50:08;;;;;;;21.48;19.95;;;;;;;;;;5015911;28;20226;-85
2022/01/21 14:52:38;;;;;;;21.65;19.77;;;;;;;;;;5016436;28;20230;-84
2022/01/21 14:55:25;;;;;;;19.00;18.00;;;;;;;;;;5015620;28;20237;-84
2022/01/21 14:57:54;;;;;;;22.90;20.65;;;;;;;;;;5016662;28;20227;-84
2022/01/21 15:00:26;;;;;;;19.98;18.45;;;;;;;;;;5015582;28;20192;-82
2022/01/21 15:03:03;;;;;;;22.38;20.13;;;;;;;;;;5015046;28;20250;-86
2022/01/21 15:05:30;;;;;;;21.00;18.95;;;;;;;;;;5016364;28;20244;-81
2022/01/21 15:07:58;;;;;;;20.55;19.05;;;;;;;;;;5016829;28;20191;-88
2022/01/21 15:10:35;;;;;;;21.58;19.80;;;;;;;;;;5015951;28;20227;-78
2022/01/21 15:16:07;;;;;;;19.40;18.27;;;;;;;;;;5016297;28;20194;-85
2022/01/21 15:18:34;;;;;;;20.20;18.90;;;;;;;;;;5016255;28;20229;-85